createdAt,value
2018-09-30T00:00:55.578Z,100436.63
2018-09-30T00:03:24.146Z,100441.37
2018-09-30T00:05:52.784Z,100436.55
2018-09-30T00:08:21.601Z,100440.87
2018-09-30T00:10:50.242Z,100441.75
2018-09-30T00:13:18.941Z,100435.67
2018-09-30T00:15:47.636Z,100434.36
2018-09-30T00:18:16.356Z,100433.42
2018-09-30T00:20:44.908Z,100432.95
2018-09-30T00:23:13.435Z,100425.08
2018-09-30T00:25:47.064Z,99781.48
2018-09-30T00:28:15.730Z,100410.69
2018-09-30T00:30:44.326Z,100415.94
2018-09-30T00:33:12.876Z,100405.05
2018-09-30T00:35:41.470Z,100410.65
2018-09-30T00:38:10.066Z,100407.58
2018-09-30T00:40:38.603Z,100407.56
2018-09-30T00:43:07.234Z,100402.75
2018-09-30T00:45:35.859Z,100394.92
2018-09-30T00:48:04.505Z,100397.54
2018-09-30T00:50:33.076Z,100393.61
2018-09-30T00:53:01.730Z,100389.27
2018-09-30T00:55:30.353Z,100417.95
2018-09-30T00:57:58.932Z,100383.98
2018-09-30T01:00:27.563Z,100379.16
2018-09-30T01:02:56.133Z,100376.52
2018-09-30T01:05:24.774Z,100369.09
2018-09-30T01:07:53.442Z,100363.88
2018-09-30T01:10:22.050Z,100359.08
2018-09-30T01:12:50.741Z,100357.75
2018-09-30T01:15:19.322Z,100355.98
2018-09-30T01:17:47.889Z,100350.33
2018-09-30T01:20:16.464Z,100358.58
2018-09-30T01:22:44.977Z,100354.22
2018-09-30T01:25:13.494Z,100348.56
2018-09-30T01:27:42.007Z,100350.70
2018-09-30T01:30:10.594Z,100346.33
2018-09-30T01:32:39.143Z,100347.61
2018-09-30T01:35:07.759Z,100347.58
2018-09-30T01:37:36.341Z,100341.91
2018-09-30T01:40:04.845Z,100336.63
2018-09-30T01:42:33.369Z,100326.55
2018-09-30T01:45:01.884Z,100320.42
2018-09-30T01:47:30.448Z,100328.20
2018-09-30T01:49:59.130Z,100316.02
2018-09-30T01:52:38.823Z,100304.72
2018-09-30T01:55:07.373Z,100302.89
2018-09-30T01:57:35.884Z,100301.11
2018-09-30T02:00:04.384Z,100295.89
2018-09-30T02:02:32.935Z,100293.29
2018-09-30T02:05:01.521Z,100288.46
2018-09-30T02:07:30.004Z,100288.91
2018-09-30T02:09:58.508Z,100288.08
2018-09-30T02:12:27.075Z,100283.24
2018-09-30T02:14:55.613Z,100278.89
2018-09-30T02:17:24.182Z,100274.56
2018-09-30T02:19:52.734Z,100281.08
2018-09-30T02:22:21.228Z,100278.92
2018-09-30T02:24:49.840Z,100273.26
2018-09-30T02:27:18.392Z,100276.28
2018-09-30T02:29:47.128Z,100273.70
2018-09-30T02:32:15.697Z,100268.91
2018-09-30T02:34:44.272Z,100270.65
2018-09-30T02:37:12.851Z,100268.02
2018-09-30T02:39:41.372Z,100264.95
2018-09-30T02:42:10.493Z,100257.54
2018-09-30T02:44:39.044Z,100260.15
2018-09-30T02:47:07.603Z,100258.84
2018-09-30T02:49:36.213Z,100250.60
2018-09-30T02:52:04.749Z,100244.06
2018-09-30T02:54:33.388Z,100239.68
2018-09-30T02:57:01.948Z,100236.64
2018-09-30T02:59:30.512Z,100232.67
2018-09-30T03:01:59.017Z,100227.02
2018-09-30T03:04:27.557Z,100229.19
2018-09-30T03:07:01.252Z,100221.34
2018-09-30T03:09:29.804Z,100220.02
2018-09-30T03:11:58.401Z,100217.81
2018-09-30T03:14:26.956Z,100214.76
2018-09-30T03:16:55.554Z,100219.09
2018-09-30T03:19:24.148Z,100216.91
2018-09-30T03:21:52.783Z,100219.91
2018-09-30T03:24:21.453Z,100222.94
2018-09-30T03:26:49.994Z,100212.03
2018-09-30T03:29:18.603Z,100214.64
2018-09-30T03:31:47.156Z,100210.25
2018-09-30T03:34:15.828Z,100212.39
2018-09-30T03:36:44.453Z,100201.03
2018-09-30T03:39:13.146Z,100195.80
2018-09-30T03:41:41.746Z,100188.86
2018-09-30T03:44:10.400Z,100188.86
2018-09-30T03:46:39.168Z,100177.11
2018-09-30T03:49:07.956Z,100170.16
2018-09-30T03:51:36.643Z,100167.52
2018-09-30T03:54:05.300Z,100166.61
2018-09-30T03:56:33.906Z,100159.22
2018-09-30T03:59:02.464Z,100155.28
2018-09-30T04:01:31.046Z,100157.05
2018-09-30T04:03:59.811Z,100146.60
2018-09-30T04:06:28.661Z,100143.14
2018-09-30T04:08:57.212Z,100140.95
2018-09-30T04:11:25.908Z,100138.80
2018-09-30T04:13:54.524Z,100137.05
2018-09-30T04:16:23.087Z,100133.56
2018-09-30T04:18:51.661Z,100040.09
2018-09-30T04:21:20.312Z,100135.28
2018-09-30T04:23:48.880Z,100129.66
2018-09-30T04:26:17.466Z,100127.44
2018-09-30T04:28:45.980Z,100128.33
2018-09-30T04:31:14.601Z,100125.72
2018-09-30T04:33:43.248Z,100136.14
2018-09-30T04:36:11.836Z,100133.95
2018-09-30T04:38:40.425Z,100135.26
2018-09-30T04:41:09.063Z,100132.22
2018-09-30T04:43:37.641Z,100135.67
2018-09-30T04:46:06.342Z,100141.77
2018-09-30T04:48:34.919Z,100142.63
2018-09-30T04:51:03.448Z,100139.14
2018-09-30T04:53:32.022Z,100144.33
2018-09-30T04:56:00.579Z,100136.05
2018-09-30T04:58:29.091Z,100137.77
2018-09-30T05:00:58.024Z,100134.72
2018-09-30T05:03:27.123Z,100134.72
2018-09-30T05:05:56.187Z,100134.70
2018-09-30T05:08:25.712Z,100135.55
2018-09-30T05:10:54.817Z,100137.72
2018-09-30T05:13:24.079Z,100135.55
2018-09-30T05:15:53.036Z,100138.63
2018-09-30T05:18:22.108Z,100146.00
2018-09-30T05:20:50.890Z,100136.86
2018-09-30T05:23:19.878Z,100138.19
2018-09-30T05:25:48.728Z,100130.81
2018-09-30T05:28:17.809Z,100127.78
2018-09-30T05:30:46.668Z,100129.09
2018-09-30T05:33:15.634Z,100131.33
2018-09-30T05:35:44.617Z,100133.48
2018-09-30T05:38:13.501Z,100126.11
2018-09-30T05:40:42.493Z,100126.58
2018-09-30T05:43:11.556Z,100127.93
2018-09-30T05:45:40.377Z,100136.18
2018-09-30T05:48:09.322Z,100130.12
2018-09-30T05:50:38.334Z,100130.12
2018-09-30T05:53:07.513Z,100124.97
2018-09-30T05:55:36.399Z,100126.27
2018-09-30T05:58:05.394Z,100131.50
2018-09-30T06:00:34.294Z,100134.99
2018-09-30T06:03:03.763Z,100136.78
2018-09-30T06:05:32.818Z,100132.47
2018-09-30T06:08:01.744Z,100137.30
2018-09-30T06:10:30.813Z,100141.28
2018-09-30T06:12:59.833Z,100140.47
2018-09-30T06:15:28.971Z,100130.89
2018-09-30T06:17:58.174Z,100133.13
2018-09-30T06:20:27.056Z,100132.27
2018-09-30T06:22:56.095Z,100137.06
2018-09-30T06:25:25.106Z,100140.16
2018-09-30T06:27:54.167Z,100141.59
2018-09-30T06:30:22.994Z,100034.45
2018-09-30T06:32:52.142Z,100134.53
2018-09-30T06:35:21.200Z,100137.29
2018-09-30T06:37:50.206Z,100133.88
2018-09-30T06:40:19.305Z,100131.95
2018-09-30T06:42:48.494Z,100134.63
2018-09-30T06:45:17.682Z,100138.35
2018-09-30T06:47:46.626Z,100135.75
2018-09-30T06:50:15.878Z,100134.84
2018-09-30T06:52:44.873Z,100131.75
2018-09-30T06:55:13.869Z,100132.86
2018-09-30T06:57:42.856Z,100134.23
2018-09-30T07:00:11.936Z,100129.32
2018-09-30T07:02:40.946Z,100130.95
2018-09-30T07:05:10.106Z,100127.47
2018-09-30T07:07:39.122Z,100123.16
2018-09-30T07:10:08.099Z,100118.41
2018-09-30T07:12:37.310Z,100116.48
2018-09-30T07:15:06.120Z,100118.98
2018-09-30T07:17:34.888Z,100121.16
2018-09-30T07:20:03.833Z,100117.55
2018-09-30T07:22:32.599Z,100112.78
2018-09-30T07:25:01.824Z,100114.13
2018-09-30T07:27:30.909Z,100116.77
2018-09-30T07:30:00.312Z,100114.09
2018-09-30T07:32:29.638Z,100114.45
2018-09-30T07:34:58.906Z,100123.77
2018-09-30T07:37:28.209Z,100116.77
2018-09-30T07:39:57.776Z,100121.72
2018-09-30T07:42:26.706Z,100114.88
2018-09-30T07:44:55.692Z,100123.46
2018-09-30T07:47:24.683Z,100125.02
2018-09-30T07:49:53.862Z,100121.74
2018-09-30T07:52:22.869Z,100116.62
2018-09-30T07:54:52.120Z,100099.61
2018-09-30T07:57:21.499Z,100104.86
2018-09-30T07:59:50.168Z,100098.97
2018-09-30T08:02:19.148Z,100089.36
2018-09-30T08:04:48.111Z,100097.93
2018-09-30T08:07:16.919Z,100091.59
2018-09-30T08:09:45.699Z,100105.76
2018-09-30T08:12:14.803Z,100108.09
2018-09-30T08:14:43.517Z,100105.17
2018-09-30T08:17:12.423Z,100097.14
2018-09-30T08:19:41.337Z,100091.54
2018-09-30T08:22:10.130Z,100085.59
2018-09-30T08:24:38.975Z,100090.19
2018-09-30T08:27:07.850Z,100091.02
2018-09-30T08:29:36.625Z,100093.97
2018-09-30T08:32:05.778Z,100086.41
2018-09-30T08:34:34.672Z,100089.55
2018-09-30T08:37:03.643Z,100090.55
2018-09-30T08:39:32.556Z,100080.65
2018-09-30T08:42:01.573Z,100081.92
2018-09-30T08:44:30.206Z,100078.66
2018-09-30T08:46:58.972Z,100076.19
2018-09-30T08:49:28.032Z,100079.75
2018-09-30T08:51:56.858Z,100084.13
2018-09-30T08:54:25.852Z,100080.27
2018-09-30T08:56:54.909Z,100073.95
2018-09-30T08:59:23.937Z,100079.08
2018-09-30T09:01:52.937Z,100083.70
2018-09-30T09:04:21.961Z,100084.08
2018-09-30T09:06:50.812Z,100085.19
2018-09-30T09:09:19.506Z,100072.84
2018-09-30T09:11:48.291Z,100073.55
2018-09-30T09:14:17.840Z,100075.20
2018-09-30T09:16:46.647Z,100077.48
2018-09-30T09:19:15.427Z,100079.30
2018-09-30T09:21:44.310Z,100080.67
2018-09-30T09:24:12.943Z,100081.11
2018-09-30T09:26:41.537Z,100073.69
2018-09-30T09:31:49.990Z,100068.58
2018-09-30T09:34:18.625Z,100070.87
2018-09-30T09:36:55.445Z,100060.91
2018-09-30T09:39:24.669Z,100065.86
2018-09-30T09:41:53.501Z,100064.92
2018-09-30T09:44:25.941Z,100065.70
2018-09-30T09:46:55.119Z,100061.20
2018-09-30T09:49:23.804Z,100060.34
2018-09-30T09:51:52.608Z,100060.20
2018-09-30T09:54:21.563Z,100057.92
2018-09-30T09:56:51.176Z,100058.92
2018-09-30T09:59:20.275Z,100048.33
2018-09-30T10:01:48.864Z,100042.66
2018-09-30T10:04:17.604Z,100037.15
2018-09-30T10:06:46.853Z,100036.50
2018-09-30T10:09:20.046Z,100028.69
2018-09-30T10:11:49.201Z,100033.71
2018-09-30T10:14:17.966Z,100039.74
2018-09-30T10:16:46.633Z,100028.67
2018-09-30T10:19:15.262Z,100021.52
2018-09-30T10:21:43.823Z,100021.84
2018-09-30T10:24:12.463Z,100017.13
2018-09-30T10:26:41.135Z,100013.64
2018-09-30T10:29:12.704Z,100007.23
2018-09-30T10:31:41.897Z,100003.95
2018-09-30T10:34:11.086Z,99996.66
2018-09-30T10:36:45.451Z,99994.27
2018-09-30T10:39:21.956Z,99995.78
2018-09-30T10:41:55.327Z,99987.79
2018-09-30T10:44:24.064Z,99986.66
2018-09-30T10:47:18.861Z,99981.25
2018-09-30T11:03:56.047Z,99973.77
2018-09-30T11:06:25.693Z,99968.50
2018-09-30T11:08:54.168Z,99959.02
2018-09-30T11:11:22.639Z,99956.78
2018-09-30T11:13:51.136Z,99955.13
2018-09-30T11:16:19.595Z,99952.09
2018-09-30T11:18:48.097Z,99943.44
2018-09-30T11:21:16.537Z,99936.70
2018-09-30T11:23:45.019Z,99936.97
2018-09-30T11:26:13.484Z,99937.70
2018-09-30T11:28:41.936Z,99929.78
2018-09-30T11:31:10.392Z,99927.14
2018-09-30T11:33:38.906Z,99922.22
2018-09-30T11:36:07.413Z,99913.39
2018-09-30T11:38:35.893Z,99915.92
2018-09-30T11:41:04.392Z,99915.09
2018-09-30T11:43:32.928Z,99905.78
2018-09-30T11:46:01.427Z,99902.70
2018-09-30T11:48:29.973Z,99896.00
2018-09-30T11:50:58.465Z,99897.33
2018-09-30T11:53:27.087Z,99891.16
2018-09-30T11:55:55.671Z,99886.76
2018-09-30T11:58:24.189Z,99886.80
2018-09-30T12:00:52.653Z,99885.65
2018-09-30T12:03:21.147Z,99879.43
2018-09-30T12:05:49.659Z,99871.81
2018-09-30T12:08:18.166Z,99872.50
2018-09-30T12:10:46.638Z,99866.70
2018-09-30T12:13:15.088Z,99862.06
2018-09-30T12:15:43.587Z,99853.11
2018-09-30T12:18:12.039Z,99860.72
2018-09-30T12:20:40.612Z,99844.67
2018-09-30T12:23:09.251Z,99830.94
2018-09-30T12:25:37.840Z,99829.48
2018-09-30T12:28:06.541Z,99832.26
2018-09-30T12:30:35.275Z,99829.73
2018-09-30T12:33:03.828Z,99824.14
2018-09-30T12:35:32.385Z,99819.23
2018-09-30T12:38:00.922Z,99815.34
2018-09-30T12:40:29.648Z,99823.22
2018-09-30T12:42:58.237Z,99817.96
2018-09-30T12:45:26.775Z,99806.64
2018-09-30T12:47:55.301Z,99803.72
2018-09-30T12:50:23.843Z,99808.59
2018-09-30T12:52:52.370Z,99802.55
2018-09-30T12:55:20.919Z,99803.28
2018-09-30T13:00:28.556Z,99798.58
2018-09-30T13:02:57.103Z,99789.34
2018-09-30T13:05:25.793Z,99787.59
2018-09-30T13:07:54.433Z,99790.22
2018-09-30T13:10:23.096Z,99784.07
2018-09-30T13:12:55.774Z,99773.27
2018-09-30T13:15:24.422Z,99767.18
2018-09-30T13:17:52.997Z,99762.17
2018-09-30T13:20:21.645Z,99763.14
2018-09-30T13:22:51.610Z,99764.38
2018-09-30T13:25:20.234Z,99767.11
2018-09-30T13:27:48.815Z,99767.65
2018-09-30T13:30:17.491Z,99766.56
2018-09-30T13:32:46.229Z,99758.48
2018-09-30T13:35:14.910Z,99761.19
2018-09-30T13:37:43.676Z,99759.13
2018-09-30T13:40:12.417Z,99758.66
2018-09-30T13:42:40.999Z,99762.45
2018-09-30T13:45:09.755Z,99753.47
2018-09-30T13:47:38.485Z,99704.97
2018-09-30T13:50:07.236Z,99751.81
2018-09-30T13:52:35.813Z,99752.95
2018-09-30T13:55:04.401Z,99750.98
2018-09-30T13:57:33.072Z,99751.29
2018-09-30T14:00:01.821Z,99752.74
2018-09-30T14:02:30.391Z,99749.28
2018-09-30T14:04:58.989Z,99755.03
2018-09-30T14:07:27.550Z,99745.77
2018-09-30T14:09:56.176Z,99750.23
2018-09-30T14:12:27.065Z,99743.92
2018-09-30T14:14:55.881Z,99266.58
2018-09-30T14:17:24.847Z,99746.80
2018-09-30T14:19:53.461Z,99742.59
2018-09-30T14:22:22.282Z,99744.70
2018-09-30T14:24:50.866Z,99742.02
2018-09-30T14:27:19.668Z,99734.48
2018-09-30T14:29:48.059Z,99728.93
2018-09-30T14:32:16.603Z,99737.34
2018-09-30T14:34:45.230Z,99731.78
2018-09-30T14:37:13.852Z,99724.92
2018-09-30T14:39:42.576Z,99731.30
2018-09-30T14:42:11.184Z,99726.16
2018-09-30T14:44:39.935Z,99723.25
2018-09-30T14:47:08.602Z,99648.20
2018-09-30T14:49:37.326Z,99725.87
2018-09-30T14:52:06.013Z,99729.30
2018-09-30T14:54:34.666Z,99724.97
2018-09-30T14:57:03.363Z,99720.20
2018-09-30T14:59:32.057Z,99725.05
2018-09-30T15:02:00.800Z,99711.67
2018-09-30T15:04:29.445Z,99709.66
2018-09-30T15:06:58.052Z,99713.16
2018-09-30T15:09:26.726Z,99709.58
2018-09-30T15:11:55.389Z,99712.53
2018-09-30T15:14:24.052Z,99710.18
2018-09-30T15:16:52.731Z,99710.89
2018-09-30T15:19:21.364Z,99706.47
2018-09-30T15:21:50.007Z,99708.55
2018-09-30T15:24:18.643Z,99700.89
2018-09-30T15:26:47.398Z,99704.37
2018-09-30T15:29:15.964Z,99704.25
2018-09-30T15:31:44.686Z,99698.48
2018-09-30T15:34:13.292Z,99697.02
2018-09-30T15:36:41.908Z,99694.30
2018-09-30T15:39:12.313Z,99693.78
2018-09-30T15:41:41.525Z,99692.84
2018-09-30T15:44:11.156Z,99690.04
2018-09-30T15:46:39.725Z,99683.70
2018-09-30T15:49:08.533Z,99688.96
2018-09-30T15:51:37.281Z,99686.79
2018-09-30T15:54:05.995Z,99687.97
2018-09-30T15:56:34.634Z,99690.56
2018-09-30T15:59:03.214Z,99689.74
2018-09-30T16:01:31.783Z,99690.44
2018-09-30T16:04:00.573Z,99692.56
2018-09-30T16:06:29.246Z,99685.44
2018-09-30T16:08:58.016Z,99690.50
2018-09-30T16:11:26.666Z,99690.81
2018-09-30T16:13:55.463Z,99695.64
2018-09-30T16:16:24.076Z,99691.56
2018-09-30T16:18:52.724Z,99690.14
2018-09-30T16:21:21.483Z,99560.59
2018-09-30T16:23:50.063Z,99685.99
2018-09-30T16:26:18.846Z,99686.83
2018-09-30T16:28:47.466Z,99685.80
2018-09-30T16:31:16.188Z,99688.83
2018-09-30T16:33:44.777Z,99686.95
2018-09-30T16:36:13.510Z,99689.03
2018-09-30T16:38:42.282Z,99687.23
2018-09-30T16:41:11.012Z,99688.22
2018-09-30T16:43:39.762Z,99696.16
2018-09-30T16:46:08.427Z,99696.64
2018-09-30T16:48:37.117Z,99687.83
2018-09-30T16:51:05.810Z,99698.41
2018-09-30T16:53:34.483Z,99702.73
2018-09-30T16:56:03.064Z,99708.06
2018-09-30T16:58:31.907Z,99704.00
2018-09-30T17:01:00.605Z,99707.89
2018-09-30T17:03:29.393Z,99707.80
2018-09-30T17:05:58.028Z,99711.33
2018-09-30T17:08:27.043Z,99712.11
2018-09-30T17:10:55.638Z,99716.61
2018-09-30T17:13:24.406Z,99709.57
2018-09-30T17:15:53.433Z,99715.30
2018-09-30T17:18:22.247Z,99722.29
2018-09-30T17:20:51.104Z,99722.23
2018-09-30T17:23:19.821Z,99722.59
2018-09-30T17:25:48.585Z,99722.42
2018-09-30T17:28:17.451Z,99732.04
2018-09-30T17:30:46.157Z,99733.27
2018-09-30T17:33:17.109Z,99736.70
2018-09-30T17:35:46.077Z,99740.62
2018-09-30T17:38:14.819Z,99745.44
2018-09-30T17:40:43.420Z,99746.66
2018-09-30T17:43:12.163Z,99750.03
2018-09-30T17:45:40.884Z,99754.29
2018-09-30T17:48:09.758Z,99758.94
2018-09-30T17:50:38.496Z,99753.97
2018-09-30T17:53:07.356Z,99756.92
2018-09-30T17:55:36.444Z,99751.03
2018-09-30T17:58:05.067Z,99750.86
2018-09-30T18:00:33.852Z,99752.45
2018-09-30T18:03:02.788Z,99757.00
2018-09-30T18:05:31.464Z,99762.62
2018-09-30T18:08:00.501Z,99763.39
2018-09-30T18:10:29.546Z,99760.45
2018-09-30T18:12:58.745Z,99766.91
2018-09-30T18:15:28.041Z,99761.80
2018-09-30T18:17:57.041Z,99765.47
2018-09-30T18:20:26.854Z,99757.76
2018-09-30T18:22:58.097Z,99754.45
2018-09-30T18:25:26.950Z,99749.84
2018-09-30T18:27:55.740Z,99759.66
2018-09-30T18:30:24.501Z,99762.00
2018-09-30T18:32:53.314Z,99759.49
2018-09-30T18:35:22.180Z,99756.17
2018-09-30T18:37:50.903Z,99756.38
2018-09-30T18:40:19.650Z,99735.83
2018-09-30T18:42:48.476Z,99761.91
2018-09-30T18:45:17.346Z,99758.93
2018-09-30T18:47:46.267Z,99761.26
2018-09-30T18:50:14.961Z,99762.64
2018-09-30T18:52:43.741Z,99758.81
2018-09-30T18:55:12.396Z,99757.62
2018-09-30T18:57:41.010Z,99756.89
2018-09-30T19:00:09.680Z,99760.09
2018-09-30T19:02:38.378Z,99754.09
2018-09-30T19:05:06.974Z,99755.04
2018-09-30T19:07:35.566Z,99751.08
2018-09-30T19:10:04.135Z,99746.81
2018-09-30T19:12:32.740Z,99745.64
2018-09-30T19:15:01.344Z,99749.28
2018-09-30T19:17:29.921Z,99747.64
2018-09-30T19:19:58.576Z,99749.91
2018-09-30T19:22:27.154Z,99749.55
2018-09-30T19:24:55.708Z,99747.53
2018-09-30T19:27:24.751Z,99747.56
2018-09-30T19:29:53.417Z,99747.67
2018-09-30T19:32:21.990Z,99747.77
2018-09-30T19:34:50.566Z,99744.72
2018-09-30T19:37:19.180Z,99743.84
2018-09-30T19:39:47.797Z,99737.75
2018-09-30T19:42:16.383Z,99747.88
2018-09-30T19:44:44.958Z,99747.44
2018-09-30T19:47:13.544Z,99742.08
2018-09-30T19:49:42.180Z,99744.58
2018-09-30T19:52:10.723Z,99749.23
2018-09-30T19:54:39.293Z,99745.98
2018-09-30T19:57:07.845Z,99753.36
2018-09-30T19:59:36.489Z,99751.95
2018-09-30T20:02:05.070Z,99746.65
2018-09-30T20:04:33.609Z,99746.55
2018-09-30T20:07:02.328Z,99750.92
2018-09-30T20:09:31.012Z,99743.89
2018-09-30T20:11:59.449Z,99745.42
2018-09-30T20:14:28.144Z,99738.89
2018-09-30T20:16:56.650Z,99745.25
2018-09-30T20:19:25.621Z,99738.31
2018-09-30T20:21:54.146Z,99735.35
2018-09-30T20:24:22.690Z,99727.56
2018-09-30T20:26:51.249Z,99725.89
2018-09-30T20:29:19.810Z,99628.61
2018-09-30T20:31:48.464Z,99725.59
2018-09-30T20:34:17.071Z,99729.14
2018-09-30T20:36:45.719Z,99727.44
2018-09-30T20:39:14.399Z,99723.03
2018-09-30T20:41:43.073Z,99718.61
2018-09-30T20:44:11.747Z,99724.34
2018-09-30T20:46:40.466Z,99724.34
2018-09-30T20:49:09.068Z,99726.53
2018-09-30T20:51:37.773Z,99721.73
2018-09-30T20:54:06.427Z,99714.27
2018-09-30T20:56:35.028Z,99725.69
2018-09-30T20:59:03.633Z,99724.80
2018-09-30T21:01:32.521Z,99723.05
2018-09-30T21:04:01.185Z,99721.33
2018-09-30T21:06:35.984Z,99720.51
2018-09-30T21:09:07.133Z,99727.53
2018-09-30T21:11:35.834Z,99724.02
2018-09-30T21:14:04.694Z,99716.09
2018-09-30T21:16:33.364Z,99716.50
2018-09-30T21:19:01.887Z,99714.33
2018-09-30T21:21:30.593Z,99722.23
2018-09-30T21:23:59.212Z,99717.38
2018-09-30T21:26:27.753Z,99722.17
2018-09-30T21:28:56.316Z,99714.74
2018-09-30T21:31:24.908Z,99715.59
2018-09-30T21:33:53.475Z,99717.31
2018-09-30T21:36:22.061Z,99712.52
2018-09-30T21:38:50.633Z,99714.22
2018-09-30T21:41:19.174Z,99713.75
2018-09-30T21:43:47.630Z,99706.75
2018-09-30T21:46:16.123Z,99703.70
2018-09-30T21:48:44.825Z,99703.70
2018-09-30T21:51:13.374Z,99704.59
2018-09-30T21:53:41.925Z,99699.76
2018-09-30T21:56:12.272Z,99699.34
2018-09-30T21:58:41.337Z,99493.11
2018-09-30T22:01:10.754Z,99707.25
2018-09-30T22:03:39.261Z,99706.84
2018-09-30T22:06:08.105Z,99702.07
2018-09-30T22:08:36.679Z,99699.88
2018-09-30T22:11:07.576Z,99701.63
2018-09-30T22:13:37.371Z,99695.13
2018-09-30T22:16:08.836Z,99700.48
2018-09-30T22:18:39.498Z,99696.56
2018-09-30T22:21:09.202Z,99697.03
2018-09-30T22:23:39.550Z,99703.17
2018-09-30T22:26:08.942Z,99696.67
2018-09-30T22:28:39.553Z,99693.61
2018-09-30T22:31:11.154Z,99694.52
2018-09-30T22:33:39.641Z,99693.22
2018-09-30T22:36:08.134Z,99700.66
2018-09-30T22:38:36.627Z,99695.45
2018-09-30T22:41:05.158Z,99695.47
2018-09-30T22:43:33.717Z,99699.92
2018-09-30T22:46:02.253Z,99692.05
2018-09-30T22:48:33.514Z,99692.92
2018-09-30T22:51:02.060Z,99699.13
2018-09-30T22:53:30.517Z,99701.34
2018-09-30T22:55:59.121Z,99704.47
2018-09-30T22:58:27.698Z,99713.71
2018-09-30T23:00:58.204Z,99709.79
2018-09-30T23:03:26.849Z,99705.92
2018-09-30T23:05:55.377Z,99711.22
2018-09-30T23:08:23.878Z,99706.00
2018-09-30T23:10:52.455Z,99706.03
2018-09-30T23:13:21.294Z,99701.67
2018-09-30T23:15:49.828Z,99708.28
2018-09-30T23:18:19.482Z,99706.11
2018-09-30T23:20:49.066Z,99697.80
2018-09-30T23:23:18.811Z,99701.28
2018-09-30T23:25:49.499Z,99696.02
2018-09-30T23:28:20.201Z,99706.96
2018-09-30T23:30:51.220Z,99707.43
2018-09-30T23:33:19.776Z,99702.17
2018-09-30T23:35:48.255Z,99697.75
2018-09-30T23:38:16.692Z,99711.77
2018-09-30T23:40:45.151Z,99702.96
2018-09-30T23:43:13.625Z,99704.72
2018-09-30T23:45:42.090Z,99702.96
2018-09-30T23:48:10.588Z,99706.39
2018-09-30T23:50:39.113Z,99706.72
2018-09-30T23:53:07.544Z,99705.79
2018-09-30T23:55:35.943Z,99703.56
2018-09-30T23:58:13.892Z,99706.61
